createdAt,value
2019-03-10T00:00:41.504Z,0.40
2019-03-10T00:03:10.240Z,0.30
2019-03-10T00:05:41.155Z,0.30
2019-03-10T00:08:09.380Z,0.40
2019-03-10T00:10:38.001Z,0.27
2019-03-10T00:13:06.693Z,0.20
2019-03-10T00:15:35.339Z,0.40
2019-03-10T00:18:04.131Z,0.30
2019-03-10T00:20:32.759Z,0.53
2019-03-10T00:23:01.424Z,0.30
2019-03-10T00:25:30.052Z,0.43
2019-03-10T00:27:58.744Z,0.53
2019-03-10T00:30:27.380Z,0.33
2019-03-10T00:32:56.027Z,0.37
2019-03-10T00:35:24.656Z,0.30
2019-03-10T00:37:54.937Z,0.80
2019-03-10T00:40:54.716Z,0.37
2019-03-10T00:43:42.725Z,0.40
2019-03-10T00:46:41.664Z,0.30
2019-03-10T00:49:21.643Z,0.60
2019-03-10T00:52:04.979Z,0.30
2019-03-10T00:54:33.652Z,0.30
2019-03-10T00:57:02.439Z,0.27
2019-03-10T00:59:31.123Z,0.37
2019-03-10T01:01:59.767Z,0.57
2019-03-10T01:04:28.377Z,0.30
2019-03-10T01:06:57.485Z,0.37
2019-03-10T01:09:26.267Z,0.50
2019-03-10T01:11:54.893Z,0.43
2019-03-10T01:14:23.585Z,0.33
2019-03-10T01:16:52.216Z,0.30
2019-03-10T01:19:20.979Z,0.20
2019-03-10T01:21:49.930Z,0.40
2019-03-10T01:24:18.562Z,0.37
2019-03-10T01:26:47.245Z,0.30
2019-03-10T01:29:17.431Z,0.50
2019-03-10T01:32:05.689Z,0.20
2019-03-10T01:34:43.511Z,0.50
2019-03-10T01:37:12.186Z,0.47
2019-03-10T01:39:40.810Z,0.30
2019-03-10T01:42:09.492Z,0.30
2019-03-10T01:44:38.181Z,0.40
2019-03-10T01:47:06.820Z,0.50
2019-03-10T01:49:35.510Z,0.20
2019-03-10T01:52:04.154Z,0.30
2019-03-10T01:54:32.903Z,0.30
2019-03-10T01:57:01.658Z,0.37
2019-03-10T01:59:30.353Z,0.50
2019-03-10T02:01:59.036Z,0.63
2019-03-10T02:04:27.655Z,0.67
2019-03-10T02:06:56.333Z,0.30
2019-03-10T02:09:25.011Z,0.30
2019-03-10T02:11:53.631Z,0.40
2019-03-10T02:14:22.311Z,0.27
2019-03-10T02:16:50.936Z,0.20
2019-03-10T02:19:19.610Z,0.70
2019-03-10T02:21:48.224Z,0.30
2019-03-10T02:24:23.629Z,0.47
2019-03-10T02:26:47.322Z,0.60
2019-03-10T02:29:15.957Z,0.53
2019-03-10T02:31:44.645Z,0.50
2019-03-10T02:34:13.275Z,0.63
2019-03-10T02:36:41.981Z,0.33
2019-03-10T02:39:10.585Z,0.50
2019-03-10T02:41:39.269Z,0.20
2019-03-10T02:44:10.666Z,0.23
2019-03-10T02:46:39.352Z,0.50
2019-03-10T02:49:08.055Z,0.40
2019-03-10T02:51:36.747Z,0.40
2019-03-10T02:54:06.834Z,0.50
2019-03-10T02:56:35.526Z,0.73
2019-03-10T02:59:04.142Z,0.50
2019-03-10T03:01:32.844Z,0.33
2019-03-10T03:04:01.459Z,0.40
2019-03-10T03:06:32.154Z,0.30
2019-03-10T03:09:00.492Z,0.57
2019-03-10T03:11:31.683Z,0.77
2019-03-10T03:14:00.293Z,0.27
2019-03-10T03:16:29.006Z,0.37
2019-03-10T03:18:57.634Z,0.30
2019-03-10T03:21:41.570Z,0.30
2019-03-10T03:23:56.651Z,0.77
2019-03-10T03:26:25.320Z,0.47
2019-03-10T03:28:54.040Z,0.60
2019-03-10T03:31:22.682Z,0.50
2019-03-10T03:33:53.005Z,0.40
2019-03-10T03:36:26.921Z,0.47
2019-03-10T03:39:07.219Z,0.30
2019-03-10T03:41:35.919Z,0.47
2019-03-10T03:44:04.595Z,0.53
2019-03-10T03:46:33.215Z,0.47
2019-03-10T03:49:01.884Z,0.63
2019-03-10T03:51:30.516Z,0.53
2019-03-10T03:53:59.167Z,0.50
2019-03-10T03:56:27.841Z,0.50
2019-03-10T03:58:56.566Z,0.30
2019-03-10T04:01:26.805Z,0.33
2019-03-10T04:03:56.804Z,0.30
2019-03-10T04:06:25.483Z,0.40
2019-03-10T04:08:55.797Z,0.30
2019-03-10T04:11:24.503Z,0.40
2019-03-10T04:13:53.175Z,0.50
2019-03-10T04:16:21.792Z,0.40
2019-03-10T04:18:50.465Z,0.40
2019-03-10T04:21:19.155Z,0.30
2019-03-10T04:23:47.771Z,0.50
2019-03-10T04:26:16.410Z,0.57
2019-03-10T04:28:45.131Z,0.60
2019-03-10T04:31:13.803Z,0.27
2019-03-10T04:33:42.440Z,0.70
2019-03-10T04:36:11.167Z,0.53
2019-03-10T04:38:40.763Z,0.87
2019-03-10T04:41:09.458Z,0.40
2019-03-10T04:43:38.453Z,0.30
2019-03-10T04:46:07.221Z,0.23
2019-03-10T04:48:35.978Z,0.80
2019-03-10T04:51:04.659Z,0.40
2019-03-10T04:53:33.421Z,0.50
2019-03-10T04:56:15.943Z,0.43
2019-03-10T04:58:46.131Z,0.20
2019-03-10T05:01:14.796Z,0.40
2019-03-10T05:03:43.503Z,0.53
2019-03-10T05:06:12.169Z,0.40
2019-03-10T05:08:40.798Z,1.43
2019-03-10T05:11:09.467Z,0.60
2019-03-10T05:13:38.174Z,0.50
2019-03-10T05:16:06.792Z,0.50
2019-03-10T05:18:35.422Z,0.53
2019-03-10T05:21:04.096Z,0.50
2019-03-10T05:23:35.391Z,0.60
2019-03-10T05:26:04.184Z,0.70
2019-03-10T05:28:38.097Z,0.37
2019-03-10T05:31:06.794Z,0.53
2019-03-10T05:33:35.408Z,0.50
2019-03-10T05:36:04.082Z,0.70
2019-03-10T05:38:32.744Z,0.40
2019-03-10T05:41:01.400Z,0.60
2019-03-10T05:43:30.041Z,0.40
2019-03-10T05:45:58.835Z,0.40
2019-03-10T05:48:27.484Z,0.33
2019-03-10T05:50:56.174Z,0.60
2019-03-10T05:53:24.755Z,0.40
2019-03-10T05:55:53.385Z,0.40
2019-03-10T05:58:22.098Z,2.67
2019-03-10T06:00:50.759Z,1.73
2019-03-10T06:03:19.423Z,2.87
2019-03-10T06:05:48.141Z,3.60
2019-03-10T06:08:16.815Z,2.90
2019-03-10T06:10:45.430Z,2.00
2019-03-10T06:13:14.105Z,1.97
2019-03-10T06:15:42.718Z,1.50
2019-03-10T06:18:13.856Z,0.90
2019-03-10T06:20:42.197Z,0.90
2019-03-10T06:23:10.856Z,1.17
2019-03-10T06:25:39.500Z,0.70
2019-03-10T06:28:08.217Z,1.10
2019-03-10T06:30:36.842Z,1.20
2019-03-10T06:33:05.535Z,0.73
2019-03-10T06:35:34.197Z,1.37
2019-03-10T06:38:02.822Z,1.20
2019-03-10T06:40:32.564Z,0.80
2019-03-10T06:43:01.504Z,1.20
2019-03-10T06:45:30.201Z,1.10
2019-03-10T06:47:58.830Z,0.53
2019-03-10T06:50:27.641Z,1.23
2019-03-10T06:52:56.370Z,0.50
2019-03-10T06:55:25.507Z,0.70
2019-03-10T06:57:57.287Z,0.53
2019-03-10T07:00:26.059Z,0.57
2019-03-10T07:02:54.678Z,1.07
2019-03-10T07:05:23.361Z,1.57
2019-03-10T07:07:52.002Z,1.33
2019-03-10T07:10:20.809Z,0.70
2019-03-10T07:12:49.442Z,0.70
2019-03-10T07:15:18.138Z,1.03
2019-03-10T07:17:46.835Z,1.23
2019-03-10T07:20:22.192Z,3.63
2019-03-10T07:22:50.962Z,10.20
2019-03-10T07:25:19.670Z,6.20
2019-03-10T07:27:55.867Z,2.50
2019-03-10T07:30:44.167Z,2.27
2019-03-10T07:33:17.154Z,2.07
2019-03-10T07:35:50.450Z,1.90
2019-03-10T07:38:38.083Z,2.03
2019-03-10T07:41:17.524Z,3.07
2019-03-10T07:43:56.853Z,1.87
2019-03-10T07:46:43.256Z,5.43
2019-03-10T07:49:28.812Z,3.50
2019-03-10T07:51:59.081Z,2.57
2019-03-10T07:54:29.273Z,1.60
2019-03-10T07:57:15.843Z,2.43
2019-03-10T07:59:51.803Z,2.20
2019-03-10T08:02:27.845Z,1.70
2019-03-10T08:04:58.038Z,1.20
2019-03-10T08:07:31.369Z,0.90
2019-03-10T08:10:01.645Z,0.70
2019-03-10T08:12:39.339Z,0.50
2019-03-10T08:15:16.732Z,0.97
2019-03-10T08:17:46.947Z,0.60
2019-03-10T08:20:23.336Z,4.43
2019-03-10T08:22:53.644Z,1.33
2019-03-10T08:25:27.034Z,1.13
2019-03-10T08:28:06.381Z,1.23
2019-03-10T08:30:46.030Z,1.10
2019-03-10T08:33:32.638Z,1.60
2019-03-10T08:36:21.171Z,1.20
2019-03-10T08:38:57.882Z,1.23
2019-03-10T08:41:33.909Z,1.37
2019-03-10T08:44:09.892Z,1.73
2019-03-10T08:46:40.395Z,1.73
2019-03-10T08:49:27.011Z,1.50
2019-03-10T08:52:03.159Z,1.67
2019-03-10T08:54:33.496Z,1.60
2019-03-10T08:57:03.817Z,1.10
2019-03-10T08:59:50.211Z,1.07
2019-03-10T09:02:35.896Z,0.80
2019-03-10T09:05:10.898Z,1.43
2019-03-10T09:07:44.029Z,1.03
2019-03-10T09:10:20.394Z,1.53
2019-03-10T09:13:06.190Z,1.00
2019-03-10T09:15:52.496Z,1.93
2019-03-10T09:18:32.441Z,7.47
2019-03-10T09:21:18.221Z,2.90
2019-03-10T09:23:57.170Z,2.27
2019-03-10T09:26:45.691Z,2.83
2019-03-10T09:29:21.751Z,1.50
2019-03-10T09:31:58.035Z,2.10
2019-03-10T09:34:46.330Z,1.70
2019-03-10T09:37:16.829Z,2.23
2019-03-10T09:39:50.198Z,1.80
2019-03-10T09:42:32.495Z,2.70
2019-03-10T09:45:05.592Z,10.40
2019-03-10T09:47:52.148Z,7.23
2019-03-10T09:50:28.413Z,4.83
2019-03-10T09:52:59.291Z,4.13
2019-03-10T09:55:33.838Z,1.37
2019-03-10T09:58:06.860Z,1.40
2019-03-10T10:00:37.067Z,2.07
2019-03-10T10:03:07.478Z,1.30
2019-03-10T10:05:49.961Z,1.80
2019-03-10T10:08:20.353Z,1.43
2019-03-10T10:10:50.567Z,1.23
2019-03-10T10:13:20.873Z,4.00
2019-03-10T10:15:54.233Z,3.47
2019-03-10T10:18:24.545Z,2.37
2019-03-10T10:20:54.825Z,2.80
2019-03-10T10:23:25.082Z,2.67
2019-03-10T10:26:07.411Z,3.17
2019-03-10T10:28:37.619Z,2.90
2019-03-10T10:31:07.895Z,3.93
2019-03-10T10:33:38.122Z,3.20
2019-03-10T10:36:17.716Z,2.97
2019-03-10T10:38:57.062Z,1.50
2019-03-10T10:41:33.418Z,1.07
2019-03-10T10:44:06.509Z,1.87
2019-03-10T10:46:53.020Z,1.50
2019-03-10T10:49:35.957Z,1.80
2019-03-10T10:52:18.454Z,1.37
2019-03-10T10:55:00.981Z,1.67
2019-03-10T10:57:31.305Z,1.43
2019-03-10T11:00:04.369Z,2.47
2019-03-10T11:02:34.792Z,1.43
2019-03-10T11:05:08.190Z,1.10
2019-03-10T11:07:38.509Z,0.80
2019-03-10T11:10:20.731Z,2.83
2019-03-10T11:13:07.597Z,2.67
2019-03-10T11:15:39.294Z,1.33
2019-03-10T11:18:14.812Z,1.37
2019-03-10T11:20:56.222Z,1.20
2019-03-10T11:23:27.602Z,3.30
2019-03-10T11:25:57.865Z,2.70
2019-03-10T11:28:44.423Z,2.20
2019-03-10T11:31:26.870Z,1.93
2019-03-10T11:34:00.328Z,2.50
2019-03-10T11:36:46.810Z,2.80
2019-03-10T11:39:33.322Z,1.10
2019-03-10T11:42:03.543Z,1.13
2019-03-10T11:44:33.977Z,0.90
2019-03-10T11:47:20.482Z,1.30
2019-03-10T11:50:09.443Z,1.20
2019-03-10T11:52:54.609Z,1.00
2019-03-10T11:55:24.936Z,1.30
2019-03-10T11:57:55.242Z,1.57
2019-03-10T12:00:25.436Z,1.40
2019-03-10T12:02:55.708Z,3.27
2019-03-10T12:05:25.924Z,5.60
2019-03-10T12:08:12.578Z,1.90
2019-03-10T12:10:42.897Z,1.53
2019-03-10T12:13:13.695Z,1.50
2019-03-10T12:15:42.374Z,2.50
2019-03-10T12:18:11.365Z,2.27
2019-03-10T12:20:41.691Z,1.80
2019-03-10T12:23:10.382Z,1.10
2019-03-10T12:25:39.181Z,2.07
2019-03-10T12:28:12.477Z,2.60
2019-03-10T12:30:42.684Z,2.80
2019-03-10T12:33:11.402Z,2.20
2019-03-10T12:35:43.181Z,3.00
2019-03-10T12:38:11.920Z,3.00
2019-03-10T12:40:42.350Z,2.43
2019-03-10T12:43:11.138Z,3.07
2019-03-10T12:45:39.921Z,2.40
2019-03-10T12:48:08.819Z,2.33
2019-03-10T12:50:37.513Z,3.20
2019-03-10T12:53:06.802Z,3.53
2019-03-10T12:55:35.849Z,3.13
2019-03-10T12:58:06.794Z,3.07
2019-03-10T13:00:35.233Z,4.03
2019-03-10T13:03:04.133Z,3.33
2019-03-10T13:05:32.908Z,2.80
2019-03-10T13:08:03.834Z,2.80
2019-03-10T13:10:32.525Z,2.30
2019-03-10T13:13:05.281Z,2.17
2019-03-10T13:15:33.967Z,2.87
2019-03-10T13:18:04.008Z,2.10
2019-03-10T13:20:34.091Z,2.93
2019-03-10T13:23:05.881Z,3.27
2019-03-10T13:25:34.613Z,2.50
2019-03-10T13:28:07.794Z,2.63
2019-03-10T13:30:36.592Z,2.67
2019-03-10T13:33:11.169Z,2.30
2019-03-10T13:35:41.527Z,2.23
2019-03-10T13:38:11.704Z,2.30
2019-03-10T13:40:41.296Z,1.90
2019-03-10T13:43:12.713Z,2.33
2019-03-10T13:45:41.336Z,3.40
2019-03-10T13:48:10.135Z,2.17
2019-03-10T13:50:38.767Z,1.50
2019-03-10T13:53:08.518Z,4.27
2019-03-10T13:55:37.126Z,5.70
2019-03-10T13:58:09.793Z,3.00
2019-03-10T14:00:38.489Z,3.00
2019-03-10T14:03:07.293Z,2.33
2019-03-10T14:05:37.597Z,1.07
2019-03-10T14:08:06.229Z,1.20
2019-03-10T14:10:34.983Z,1.43
2019-03-10T14:13:05.298Z,2.80
2019-03-10T14:15:38.050Z,1.93
2019-03-10T14:18:06.693Z,1.57
2019-03-10T14:20:35.323Z,2.60
2019-03-10T14:23:07.019Z,3.43
2019-03-10T14:25:37.238Z,3.60
2019-03-10T14:28:05.940Z,2.93
2019-03-10T14:30:34.622Z,2.13
2019-03-10T14:33:03.337Z,2.40
2019-03-10T14:35:31.976Z,2.50
2019-03-10T14:38:02.347Z,2.83
2019-03-10T14:40:32.322Z,4.60
2019-03-10T14:43:01.018Z,3.80
2019-03-10T14:45:31.007Z,5.70
2019-03-10T14:47:59.743Z,4.53
2019-03-10T14:50:28.770Z,5.03
2019-03-10T14:52:57.449Z,4.23
2019-03-10T14:55:26.227Z,3.47
2019-03-10T14:57:57.945Z,2.70
2019-03-10T15:00:29.045Z,4.13
2019-03-10T15:03:00.529Z,3.83
2019-03-10T15:05:29.428Z,2.83
2019-03-10T15:07:58.089Z,4.30
2019-03-10T15:10:30.278Z,6.80
2019-03-10T15:13:02.576Z,5.10
2019-03-10T15:15:31.259Z,5.67
2019-03-10T15:18:03.268Z,4.70
2019-03-10T15:20:31.981Z,4.73
2019-03-10T15:23:03.342Z,4.40
2019-03-10T15:25:32.035Z,4.17
2019-03-10T15:28:00.807Z,2.40
2019-03-10T15:30:29.523Z,1.60
2019-03-10T15:32:58.302Z,1.27
2019-03-10T15:35:30.000Z,1.40
2019-03-10T15:37:58.786Z,0.93
2019-03-10T15:40:27.428Z,1.43
2019-03-10T15:42:59.191Z,1.87
2019-03-10T15:45:28.145Z,3.20
2019-03-10T15:47:57.079Z,2.47
2019-03-10T15:50:31.667Z,2.83
2019-03-10T15:53:00.506Z,2.00
2019-03-10T15:55:29.199Z,1.47
2019-03-10T15:57:57.822Z,1.33
2019-03-10T16:00:27.779Z,1.00
2019-03-10T16:02:58.047Z,1.00
2019-03-10T16:05:28.416Z,0.60
2019-03-10T16:07:57.036Z,0.50
2019-03-10T16:10:25.715Z,0.80
2019-03-10T16:12:54.423Z,1.00
2019-03-10T16:15:27.879Z,0.63
2019-03-10T16:17:56.672Z,0.87
2019-03-10T16:20:25.352Z,0.80
2019-03-10T16:22:55.403Z,0.60
2019-03-10T16:25:24.471Z,0.83
2019-03-10T16:27:53.206Z,0.70
2019-03-10T16:30:23.699Z,1.60
2019-03-10T16:32:52.577Z,1.57
2019-03-10T16:35:22.814Z,2.23
2019-03-10T16:37:51.681Z,1.40
2019-03-10T16:40:21.536Z,1.40
2019-03-10T16:42:50.902Z,1.37
2019-03-10T16:45:21.536Z,0.70
2019-03-10T16:47:50.321Z,0.37
2019-03-10T16:50:29.347Z,0.40
2019-03-10T16:52:59.586Z,0.50
2019-03-10T16:55:28.366Z,1.10
2019-03-10T16:57:57.356Z,0.50
2019-03-10T17:00:26.046Z,0.50
2019-03-10T17:02:54.721Z,0.50
2019-03-10T17:05:25.195Z,0.40
2019-03-10T17:07:53.942Z,0.90
2019-03-10T17:10:30.415Z,0.60
2019-03-10T17:13:00.738Z,0.60
2019-03-10T17:15:29.420Z,0.40
2019-03-10T17:17:58.204Z,0.67
2019-03-10T17:20:27.099Z,0.60
2019-03-10T17:22:56.458Z,0.97
2019-03-10T17:25:31.013Z,0.40
2019-03-10T17:27:59.717Z,0.70
2019-03-10T17:30:29.974Z,1.67
2019-03-10T17:32:59.031Z,1.77
2019-03-10T17:35:27.721Z,1.10
2019-03-10T17:37:56.527Z,2.07
2019-03-10T17:40:25.907Z,1.83
2019-03-10T17:42:54.606Z,2.10
2019-03-10T17:45:26.503Z,1.23
2019-03-10T17:47:57.752Z,0.80
2019-03-10T17:50:26.803Z,0.40
2019-03-10T17:52:59.918Z,2.30
2019-03-10T17:55:31.646Z,1.67
2019-03-10T17:58:00.337Z,3.70
2019-03-10T18:00:33.579Z,5.53
2019-03-10T18:03:02.316Z,3.10
2019-03-10T18:05:34.794Z,2.63
2019-03-10T18:08:03.728Z,0.90
2019-03-10T18:10:32.471Z,11.87
2019-03-10T18:13:01.310Z,3.97
2019-03-10T18:15:32.439Z,5.47
2019-03-10T18:18:01.214Z,4.47
2019-03-10T18:20:31.527Z,4.50
2019-03-10T18:23:03.011Z,4.53
2019-03-10T18:25:31.860Z,6.20
2019-03-10T18:28:00.784Z,6.30
2019-03-10T18:30:33.960Z,5.03
2019-03-10T18:33:05.705Z,2.53
2019-03-10T18:35:40.182Z,3.50
2019-03-10T18:38:08.977Z,2.33
2019-03-10T18:40:39.357Z,1.97
2019-03-10T18:43:08.134Z,1.47
2019-03-10T18:45:36.908Z,2.23
2019-03-10T18:48:07.258Z,1.80
2019-03-10T18:50:35.948Z,0.67
2019-03-10T18:53:04.721Z,0.40
2019-03-10T18:55:33.713Z,0.50
2019-03-10T18:58:04.500Z,0.60
2019-03-10T19:00:39.322Z,0.60
2019-03-10T19:03:10.041Z,0.30
2019-03-10T19:05:39.328Z,0.37
2019-03-10T19:08:12.958Z,0.40
2019-03-10T19:10:43.366Z,0.67
2019-03-10T19:13:13.982Z,0.37
2019-03-10T19:15:42.786Z,0.90
2019-03-10T19:18:12.556Z,0.60
2019-03-10T19:20:41.872Z,0.57
2019-03-10T19:23:10.760Z,0.30
2019-03-10T19:25:42.958Z,0.47
2019-03-10T19:28:14.869Z,0.67
2019-03-10T19:30:45.366Z,0.40
2019-03-10T19:33:15.093Z,0.50
2019-03-10T19:35:45.494Z,0.50
2019-03-10T19:38:16.443Z,0.50
2019-03-10T19:40:47.275Z,0.50
2019-03-10T19:43:18.038Z,0.50
2019-03-10T19:45:47.006Z,0.50
2019-03-10T19:48:16.421Z,0.77
2019-03-10T19:50:45.627Z,0.90
2019-03-10T19:53:14.904Z,0.63
2019-03-10T19:55:44.050Z,0.30
2019-03-10T19:58:13.071Z,0.50
2019-03-10T20:00:42.162Z,0.30
2019-03-10T20:03:12.596Z,0.37
2019-03-10T20:05:42.034Z,0.43
2019-03-10T20:08:12.999Z,0.30
2019-03-10T20:10:41.733Z,2.80
2019-03-10T20:13:10.937Z,2.10
2019-03-10T20:15:39.657Z,0.70
2019-03-10T20:18:08.383Z,1.10
2019-03-10T20:20:37.335Z,0.77
2019-03-10T20:23:06.304Z,0.50
2019-03-10T20:25:35.058Z,0.77
2019-03-10T20:28:03.953Z,0.77
2019-03-10T20:30:32.750Z,0.50
2019-03-10T20:33:03.247Z,0.40
2019-03-10T20:35:34.784Z,0.37
2019-03-10T20:38:03.017Z,0.90
2019-03-10T20:40:32.095Z,0.37
2019-03-10T20:43:03.849Z,0.80
2019-03-10T20:45:32.661Z,0.40
2019-03-10T20:48:01.347Z,0.40
2019-03-10T20:50:31.651Z,0.63
2019-03-10T20:53:01.972Z,0.57
2019-03-10T20:55:30.627Z,4.57
2019-03-10T20:58:00.914Z,0.93
2019-03-10T21:00:29.993Z,0.80
2019-03-10T21:02:58.762Z,1.00
2019-03-10T21:05:27.430Z,10.10
2019-03-10T21:07:56.162Z,3.30
2019-03-10T21:10:26.440Z,1.97
2019-03-10T21:12:55.171Z,0.73
2019-03-10T21:15:26.388Z,0.40
2019-03-10T21:17:54.841Z,1.00
2019-03-10T21:20:27.212Z,1.17
2019-03-10T21:22:55.904Z,3.43
2019-03-10T21:25:31.894Z,1.73
2019-03-10T21:28:00.713Z,0.67
2019-03-10T21:30:33.455Z,1.03
2019-03-10T21:33:02.191Z,0.60
2019-03-10T21:35:33.162Z,0.30
2019-03-10T21:38:01.267Z,0.20
2019-03-10T21:40:34.088Z,0.40
2019-03-10T21:43:02.756Z,0.20
2019-03-10T21:45:31.566Z,0.50
2019-03-10T21:48:01.813Z,1.33
2019-03-10T21:50:30.499Z,0.77
2019-03-10T21:52:59.185Z,0.40
2019-03-10T21:55:27.877Z,1.90
2019-03-10T21:57:56.523Z,2.10
2019-03-10T22:00:25.304Z,5.07
2019-03-10T22:02:53.988Z,1.17
2019-03-10T22:05:22.629Z,1.17
2019-03-10T22:07:51.277Z,5.03
2019-03-10T22:10:26.862Z,3.27
2019-03-10T22:12:51.203Z,0.60
2019-03-10T22:15:20.820Z,0.97
2019-03-10T22:17:49.432Z,1.20
2019-03-10T22:20:18.818Z,2.40
2019-03-10T22:22:49.924Z,1.40
2019-03-10T22:25:18.321Z,1.23
2019-03-10T22:27:47.080Z,1.80
2019-03-10T22:30:22.911Z,0.67
2019-03-10T22:32:51.600Z,1.10
2019-03-10T22:35:21.578Z,1.20
2019-03-10T22:37:50.281Z,1.90
2019-03-10T22:40:19.022Z,1.90
2019-03-10T22:42:47.742Z,0.93
2019-03-10T22:45:20.536Z,0.50
2019-03-10T22:47:49.204Z,0.93
2019-03-10T22:50:18.260Z,1.40
2019-03-10T22:52:46.861Z,1.10
2019-03-10T22:55:16.019Z,1.03
2019-03-10T22:57:44.885Z,0.87
2019-03-10T23:00:25.825Z,0.80
2019-03-10T23:02:54.505Z,0.57
2019-03-10T23:05:23.180Z,1.20
2019-03-10T23:07:51.856Z,0.90
2019-03-10T23:10:20.482Z,0.80
2019-03-10T23:12:49.159Z,1.13
2019-03-10T23:15:17.820Z,0.60
2019-03-10T23:17:46.441Z,1.70
2019-03-10T23:20:16.427Z,1.40
2019-03-10T23:22:45.040Z,0.60
2019-03-10T23:25:13.775Z,0.70
2019-03-10T23:27:42.543Z,0.70
2019-03-10T23:30:16.547Z,0.67
2019-03-10T23:32:45.165Z,0.50
2019-03-10T23:35:13.956Z,0.70
2019-03-10T23:37:42.712Z,0.67
2019-03-10T23:47:07.655Z,0.80
2019-03-10T23:49:36.263Z,0.70
2019-03-10T23:52:04.925Z,0.70
2019-03-10T23:54:33.637Z,0.97
2019-03-10T23:57:03.618Z,0.63
2019-03-10T23:59:32.288Z,0.60
